<< Go Back

St. Valenine 5k
Date: Sep. 16, 2012
Results by Everal Race Management
Contact for Race Timing

St. Valentine 5k Run/Walk
5k Run/Walk
Age Group Results
September 16, 2012

--------------------------------------------------------------------------------
Results By Everal Race Management
--------------------------------------------------------------------------------

Female Overall Winners
Total
Place Name City Bib No Age Overall Time Pace
1 Lindsay Parsell Troy MI 107 34 4 21:47 7:02/M
2 Amber Castoreno Allen Park MI 239 14 9 23:18 7:31/M
3 Maeve Devlin Livonia MI 100 20 13 25:16 8:09/M

Male Overall Winners
Total
Place Name City Bib No Age Overall Time Pace
1 Nick Ott 250 17 1 17:31 5:39/M
2 Matt Lepper Livonia MI 14 13 2 19:27 6:16/M
3 Daniel Danic Carlton MI 157 33 3 19:44 6:22/M

Female 65 and Older Winners
Total
Place Name City Bib No Age Overall Time Pace
1 Kaalle Pfander Livonia MI 116 67 66 41:30 13:23/M
2 Matry Suchenek Redford MI 125 83 172 1:08:22 22:03/M

Male 65 and Older Winners
Total
Place Name City Bib No Age Overall Time Pace
1 Tom Whalen 256 70 59 38:54 12:33/M
2 Ron Fron Redford MI 89 69 102 53:00 17:06/M
3 Frank Zbikowski Livonia MI 90 65 103 53:00 17:06/M

No age provided
Total
Place Name City Bib No Age Overall Time Pace
1 Penny Gehan 257 0 126 56:24 18:12/M
2 Stephanie Johnson Farmington Hills M 217 0 162 1:04:16 20:44/M
3 Amy Sitarski 259 0 166 1:04:46 20:54/M
4 Lori Sitarski 258 0 167 1:05:14 21:03/M
5 Abby Sitarski 260 0 168 1:05:14 21:03/M
6 Irene Cavanaugh Redford MI 145 0 173 1:08:23 22:04/M
7 Ava Senkowski Milford MI 224 0 175 1:08:38 22:08/M

No age provided
Total
Place Name City Bib No Age Overall Time Pace
1 Stuart Mair 247 0 5 21:59 7:05/M
2 Jay Johnson Farmington Hills M 218 0 164 1:04:22 20:46/M
3 Mike Kandar Farmington Hills M 219 0 165 1:04:24 20:46/M

Female 9 & under
Total
Place Name City Bib No Age Overall Time Pace
1 Erin Hegerty Livonia MI 114 9 32 32:30 10:29/M
2 Julia Sepulveda Redford MI 54 7 64 41:27 13:22/M
3 Anna Williams Westland MI 138 6 67 41:30 13:23/M
4 Addison Parsell Troy MI 108 7 72 42:51 13:49/M
5 Cadence Surato 238 7 73 42:52 13:50/M
6 Catherine West Northville MI 82 9 82 46:08 14:53/M
7 Rowan O'Brien Redford MI 120 6 122 56:14 18:08/M
8 Alexa Calleja Redford MI 127 5 180 1:09:08 22:18/M

Male 9 & under
Total
Place Name City Bib No Age Overall Time Pace
1 Lucas Danic Redford MI 118 8 37 33:44 10:53/M
2 Luke Williams Westland MI 139 9 54 37:14 12:01/M
3 Joe McComb Livonia MI 77 9 60 39:15 12:40/M
4 Michael Hegerty Livonia MI 140 7 68 41:31 13:24/M
5 Devin Massorang Livonia MI 31 7 154 1:00:49 19:37/M

Female 10 to 19
Total
Place Name City Bib No Age Overall Time Pace
1 Grace Lepper Livonia MI 13 13 16 26:59 8:42/M
2 Kaitlyn Miville Redford MI 200 11 31 31:56 10:18/M
3 Isador Baughman Redford MI 193 14 38 33:46 10:54/M
4 Amanda Bierkamp Redford MI 142 19 39 33:58 10:57/M
5 Madison Nuorala 231 18 45 35:20 11:24/M
6 Sophia Jachman Redford MI 168 13 46 35:23 11:25/M
7 Danlelle Mondoux Redford MI 213 11 49 35:48 11:33/M
8 Nadia Sexton W. Bloomfield MI 160 12 50 36:23 11:44/M
9 Rachael Sexton W. Bloomfield MI 162 11 51 36:36 11:48/M
10 Nicole Sepulveda Redford MI 52 13 69 42:18 13:39/M
11 Paige Kleinknecht Redford MI 48 13 70 42:25 13:41/M
12 Mary Kate Barnauskas Livonia MI 51 13 71 42:26 13:41/M
13 Kelsey Lafferty Redford MI 6 18 76 44:03 14:13/M
14 Fiona Baughman Redford MI 192 11 77 45:30 14:41/M
15 Kathleen Bushart Redford MI 49 13 83 46:12 14:54/M
16 Emma Ploch Redford MI 64 12 91 48:22 15:36/M
17 Annliisa Nuorala 232 10 98 51:18 16:33/M
18 Illa Roullier Redford MI 5 10 99 51:18 16:33/M
19 Becca Damuth Redford MI 38 11 101 52:26 16:55/M
20 Marie Williamson Livonia MI 18 14 108 53:15 17:11/M
21 Abby Benard Westland MI 185 18 109 53:19 17:12/M
22 Julie Harkin Redford MI 74 14 114 54:03 17:26/M
23 Shanon Rice Redford MI 214 13 125 56:22 18:11/M
24 Sonora Sexton W. Bloomfield MI 161 14 127 56:37 18:16/M
25 Alex Bierkamp Redford MI 143 14 129 57:01 18:24/M
26 Avery Zimmerman Redford MI 251 14 130 57:02 18:24/M
27 Tori Buscemi Redford MI 196 12 159 1:02:50 20:16/M

Male 10 to 19
Total
Place Name City Bib No Age Overall Time Pace
1 Sean Butler Livonia MI 253 12 10 23:29 7:35/M
2 Jason McComb Livonia MI 76 12 12 25:10 8:07/M
3 Beau Bushart Redford MI 198 16 20 28:42 9:15/M
4 Evan Beaudoin Redford MI 112 13 21 28:50 9:18/M
5 Patrick Fox 248 11 22 29:11 9:25/M
6 Ryan Williamson Livonia MI 17 15 30 31:55 10:18/M
7 Nolan Donner Redford MI 178 11 61 39:37 12:47/M
8 Spencer St. Peter Detroit MI 223 13 78 45:41 14:44/M
9 Luke Jachman Redford MI 169 11 92 48:34 15:40/M
10 Joseph Gallagher Redford MI 97 19 96 50:22 16:15/M
11 Jake Wilson Westland MI 184 18 110 53:19 17:12/M
12 Sydney Bauer Redford MI 190 12 111 53:27 17:15/M
13 Michael McComb Livonia MI 75 14 124 56:21 18:11/M
14 Sean Harkin Redford MI 73 12 145 58:58 19:01/M
15 Tony Buscemi Redford MI 195 10 158 1:02:42 20:14/M
16 Ben Senkowski Milford MI 225 16 177 1:08:40 22:09/M

Female 20 to 29
Total
Place Name City Bib No Age Overall Time Pace
1 Colleen Bardoon Livonia MI 207 26 27 31:18 10:06/M
2 Monique Nash Redford MI 41 26 80 45:46 14:46/M
3 Janie Bauer Plymouth MI 191 20 104 53:06 17:08/M
4 Kelsey Teets Plymouth MI 188 20 105 53:07 17:08/M
5 Ann Keipert Royal Oak MI 164 27 106 53:09 17:09/M
6 Chrystal Bruckner Redford MI 170 27 107 53:11 17:09/M
7 Jenny Rybka Redford MI 149 26 119 56:05 18:05/M
8 Brigid Kelly Livonia MI 22 20 133 57:12 18:27/M
9 Mallory Murzin Livonia MI 242 25 141 58:29 18:52/M
10 Meghan Chateau Eastpointe MI 163 27 156 1:01:38 19:53/M

Male 20 to 29
Total
Place Name City Bib No Age Overall Time Pace
1 John Mark Toth Redford MI 101 23 8 23:02 7:26/M
2 Jeremy Bruckner Redford MI 171 29 42 34:59 11:17/M
3 Bill McMurzin 243 28 142 58:29 18:52/M

Female 30 to 39
Total
Place Name City Bib No Age Overall Time Pace
1 Jen Hegerty Livonia MI 113 39 18 27:32 8:53/M
2 Allison Wright Redford MI 23 36 19 28:15 9:07/M
3 Shannon Marschall Fowlerville MI 102 34 29 31:51 10:16/M
4 Harmony Vanhollebeke Redford MI 69 32 35 33:29 10:48/M
5 Tyna Goodrich Redford MI 117 32 47 35:25 11:25/M
6 Alexis Pyrkosz Fenton MI 210 30 48 35:46 11:32/M
7 Karen Williams Westland MI 136 39 55 37:19 12:02/M
8 Rachel Damuth Redford MI 37 38 84 46:18 14:56/M
9 Jen Carpen Livonia MI 165 30 85 46:18 14:56/M
10 Kim Olesky Livonia MI 93 38 112 53:59 17:25/M
11 Kelli Oliver Clawson MI 131 30 152 1:00:17 19:27/M
12 Laura Savage Dearborn MI 182 32 157 1:01:43 19:55/M
13 Stephanie Kandar Farmington Hills M 216 39 163 1:04:20 20:45/M
14 Deb Pyrkosz Redford MI 78 32 184 1:13:20 23:39/M
15 Andrea Vann Redford MI 80 33 185 1:13:25 23:41/M
16 Carolyn Kelly Redford MI 156 33 186 1:13:26 23:41/M
17 Christine Begle Livonia MI 155 33 187 1:13:26 23:41/M

Male 30 to 39
Total
Place Name City Bib No Age Overall Time Pace
1 Michael Cushman Livonia MI 183 30 6 22:24 7:14/M
2 John Doonan Detroit MI 230 35 17 27:30 8:52/M
3 Mike Pyrkosz Fenton MI 211 30 43 35:11 11:21/M
4 Fabian Sepulveda Redford MI 53 38 65 41:27 13:22/M
5 Christopher Parsell Troy MI 106 36 74 42:57 13:51/M
6 Jonathan Ovalle Ann Arbor MI 220 35 79 45:44 14:45/M
7 Matt Marschall Fowlerville MI 103 35 81 45:59 14:50/M
8 Anthony Cerroni Redford MI 135 38 100 52:08 16:49/M
9 Jamie Olesky Livonia MI 94 36 113 53:59 17:25/M
10 Eric Oliver Clawson MI 132 32 151 1:00:17 19:27/M

Female 40 to 49
Total
Place Name City Bib No Age Overall Time Pace
1 Lisa O'Grady Redford MI 58 49 28 31:35 10:11/M
2 Sandy Bierkamp Redford MI 141 44 52 36:56 11:55/M
3 Lori Garchar Redford MI 205 42 53 36:57 11:55/M
4 Colleen Donner Redford MI 179 47 63 41:09 13:16/M
5 Michelle Lafferty Redford MI 7 40 75 44:02 14:12/M
6 Carole Booms Canton MI 25 44 88 46:32 15:01/M
7 Maureen Okasinski Northville MI 81 44 89 48:11 15:33/M
8 Sharon Ploch Redford MI 65 49 90 48:21 15:36/M
9 Patty Williamson Livonia MI 16 47 97 50:32 16:18/M
10 Debbie Rice Redford MI 215 47 117 55:53 18:02/M
11 Laura Mondoux Redford MI 212 42 118 55:55 18:02/M
12 Emily Sexton W. Bloomfield MI 159 44 128 56:49 18:20/M
13 Dawn Senkowski Milford MI 226 42 176 1:08:39 22:09/M
14 Christine Calleja Redford MI 126 40 181 1:09:09 22:18/M

Male 40 to 49
Total
Place Name City Bib No Age Overall Time Pace
1 Michael Miville Redford MI 201 41 11 24:14 7:49/M
2 Jim Zittel Waterford MI 255 49 14 26:11 8:27/M
3 Michael Roullier Redford MI 4 43 15 26:35 8:35/M
4 Stephen Garchar Redford MI 206 44 23 29:36 9:33/M
5 Marty Hegerty Livonia MI 115 45 33 32:31 10:29/M
6 Father Suresh Redford MI 1 40 44 35:19 11:24/M
7 Ron Damuth Redford MI 36 40 86 46:27 14:59/M
8 Keith Booms Canton MI 24 44 87 46:30 15:00/M
9 Craig O'Brien Redford MI 121 42 123 56:16 18:09/M
10 Phil Massorang Livonia MI 30 47 155 1:00:51 19:38/M

Female 50 to 59
Total
Place Name City Bib No Age Overall Time Pace
1 Mary Beth Butler 254 58 24 30:03 9:42/M
2 Maria Martinuzzi Redford MI 88 50 56 38:37 12:27/M
3 Marikae Brehm Redford MI 146 53 57 38:40 12:28/M
4 Kris Brake Redford MI 147 53 58 38:40 12:28/M
5 Beth Jachman Redford MI 167 51 93 48:36 15:41/M
6 Cecilia Gallagher Redford MI 98 51 94 49:28 15:57/M
7 Julie Prochazka Canton MI 152 53 115 54:11 17:29/M
8 Cheryl Rosa Livonia MI 173 56 131 57:06 18:25/M
9 Sylvia Sniger Redford MI 95 59 137 57:44 18:37/M
10 Carol Wilson Redford MI 177 55 138 57:47 18:38/M
11 Linda Murzin Livonia MI 240 59 146 59:45 19:16/M
12 Sue Oliver Metamora MI 134 52 153 1:00:18 19:27/M
13 Tina Buscemi Redford MI 197 50 160 1:02:54 20:17/M
14 Raleigh Baughman 244 50 169 1:06:05 21:19/M
15 Anita Barnes 249 53 170 1:06:06 21:19/M
16 Ellen Hanlon Rochester MI 209 57 174 1:08:37 22:08/M
17 Joy Majzuk Canton MI 67 55 183 1:09:50 22:32/M

Male 50 to 59
Total
Place Name City Bib No Age Overall Time Pace
1 Neal Martinuzzi Redford MI 87 50 7 22:47 7:21/M
2 Jeff Williams Westland MI 137 50 26 31:06 10:02/M
3 Matt Jachman Redford MI 166 51 36 33:31 10:49/M
4 Bob Zimmerman Redford MI 252 54 40 34:31 11:08/M
5 Tom Gallagher Redford MI 96 52 41 34:37 11:10/M
6 Michael Stack Redford MI 10 53 62 39:48 12:50/M
7 Mike O'Grady Redford MI 56 54 95 50:14 16:12/M
8 Ken Rybka Redford MI 148 57 120 56:11 18:07/M
9 George Rosa Livonia MI 172 58 132 57:07 18:25/M
10 Mike Kelly Livonia MI 20 54 134 57:14 18:28/M
11 Dennis Bauer Redford MI 189 53 135 57:16 18:28/M
12 John Dziurgot Redford MI 19 57 136 57:17 18:29/M
13 John Murzin Livonia MI 241 56 149 59:54 19:19/M
14 Steve Oliver Metamora MI 133 53 150 1:00:16 19:26/M
15 Joe Buscemi Redford MI 194 55 161 1:02:55 20:18/M
16 John Senkowski Milford MI 228 50 178 1:08:40 22:09/M

Female 60 & up
Total
Place Name City Bib No Age Overall Time Pace
1 Susan Mote Redford MI 151 62 116 54:14 17:30/M
2 Vicki Graham 234 63 140 58:26 18:51/M
3 Pat Bax 245 61 143 58:40 18:55/M
4 Joan Ricotta Brighton MI 8 60 147 59:46 19:17/M
5 Joan Martinuzzi Redford MI 15 61 171 1:08:22 22:03/M

Male 60 & up
Total
Place Name City Bib No Age Overall Time Pace
1 Deacon Lawrence Toth Redford MI 2 60 25 30:24 9:48/M
2 Raymond Mote Redford MI 150 64 34 32:34 10:30/M
3 Ed O'Brien Redford MI 124 74 121 56:12 18:08/M
4 Gary Graham 233 63 139 58:23 18:50/M
5 Ed Bax 246 61 144 58:42 18:56/M
6 Jim Ricotta Brighton MI 9 63 148 59:51 19:18/M
7 Wayne Hanlon Rochester MI 208 66 179 1:08:41 22:09/M
8 Ron Majzuk Canton MI 66 61 182 1:09:47 22:31/M


--------------------------------------------------------------------------------